Altonah, Utah
Current Conditions -  °F | °C
As of 5:53 PM on Wednesday 26 Nov 2014 (Local Time) from KVEL Reporting Station
Clear Clear  
Wind Chill: 34°   Ceiling: Unl
Heat Index: 38°   Visibility: 10mi
Dew Point: 28°   Wind: 5mph
Humidity: 68%   Direction: 280°W
Pressure: 30.33"   Gusts: NA
Location:  40.4°N, 110.29°W
Report Text: KVEL 270053Z AUTO 28004KT 10SM CLR 03/M02 A3033 RMK AO2 SLP290 T00331022
Loading
Personal Weather Stations






























Interactive Weather Map New forecast layout! Learn more

10-Day Weather Forecast

Advertisements
Track Severe Weather on mobile